createdAt,value
2023-02-06T00:02:22.273Z,51.00
2023-02-06T00:04:51.603Z,51.10
2023-02-06T00:07:20.783Z,51.10
2023-02-06T00:09:49.907Z,51.00
2023-02-06T00:12:20.547Z,51.00
2023-02-06T00:14:49.793Z,51.00
2023-02-06T00:17:18.965Z,51.00
2023-02-06T00:19:48.088Z,51.00
2023-02-06T00:22:17.267Z,51.00
2023-02-06T00:24:46.443Z,50.90
2023-02-06T00:27:15.591Z,50.90
2023-02-06T00:29:46.179Z,50.90
2023-02-06T00:32:15.970Z,51.00
2023-02-06T00:34:45.372Z,50.80
2023-02-06T00:37:17.545Z,50.80
2023-02-06T00:39:46.768Z,50.80
2023-02-06T00:42:16.548Z,50.80
2023-02-06T00:44:49.203Z,50.80
2023-02-06T00:47:18.413Z,50.90
2023-02-06T00:49:48.025Z,50.90
2023-02-06T00:52:17.225Z,50.70
2023-02-06T00:54:47.906Z,50.70
2023-02-06T00:57:17.113Z,50.70
2023-02-06T00:59:46.353Z,50.70
2023-02-06T01:02:16.917Z,50.70
2023-02-06T01:04:46.440Z,50.70
2023-02-06T01:07:15.640Z,50.50
2023-02-06T01:09:44.777Z,50.50
2023-02-06T01:12:14.001Z,50.50
2023-02-06T01:14:43.229Z,50.40
2023-02-06T01:17:13.914Z,50.50
2023-02-06T01:19:44.493Z,50.40
2023-02-06T01:22:13.684Z,50.40
2023-02-06T01:24:42.916Z,50.30
2023-02-06T01:27:13.028Z,50.30
2023-02-06T01:29:43.461Z,50.40
2023-02-06T01:32:12.659Z,50.20
2023-02-06T01:34:43.273Z,50.20
2023-02-06T01:37:12.471Z,50.20
2023-02-06T01:39:41.987Z,50.10
2023-02-06T01:42:13.941Z,50.10
2023-02-06T01:44:44.081Z,50.10
2023-02-06T01:47:13.500Z,50.10
2023-02-06T01:49:48.985Z,50.10
2023-02-06T01:52:21.720Z,50.10
2023-02-06T01:54:55.277Z,50.10
2023-02-06T01:57:26.108Z,50.00
2023-02-06T01:59:59.354Z,50.00
2023-02-06T02:02:30.292Z,50.00
2023-02-06T02:05:02.898Z,50.00
2023-02-06T02:07:37.715Z,50.00
2023-02-06T02:10:07.453Z,50.00
2023-02-06T02:12:36.658Z,49.90
2023-02-06T02:15:06.645Z,49.90
2023-02-06T02:17:45.533Z,49.80
2023-02-06T02:20:55.286Z,49.80
2023-02-06T02:23:38.388Z,49.70
2023-02-06T02:26:40.146Z,49.80
2023-02-06T02:29:41.582Z,49.80
2023-02-06T02:32:52.351Z,49.70
2023-02-06T02:35:32.413Z,49.60
2023-02-06T02:38:18.360Z,49.70
2023-02-06T02:40:54.960Z,50.30
2023-02-06T02:43:34.040Z,49.60
2023-02-06T02:46:10.182Z,49.60
2023-02-06T02:48:43.100Z,49.50
2023-02-06T02:51:14.733Z,49.50
2023-02-06T02:53:44.254Z,49.50
2023-02-06T02:56:19.048Z,49.50
2023-02-06T02:58:52.442Z,49.40
2023-02-06T03:01:27.601Z,49.40
2023-02-06T03:04:01.672Z,49.40
2023-02-06T03:06:52.123Z,49.30
2023-02-06T03:09:36.240Z,49.30
2023-02-06T03:12:13.700Z,49.20
2023-02-06T03:14:50.622Z,49.30
2023-02-06T03:17:24.957Z,49.20
2023-02-06T03:19:58.163Z,49.20
2023-02-06T03:22:30.886Z,49.30
2023-02-06T03:25:01.944Z,49.20
2023-02-06T03:27:32.491Z,49.10
2023-02-06T03:30:04.297Z,49.10
2023-02-06T03:32:35.928Z,49.20
2023-02-06T03:35:09.309Z,49.10
2023-02-06T03:37:40.583Z,49.10
2023-02-06T03:40:11.163Z,49.10
2023-02-06T03:42:44.290Z,49.10
2023-02-06T03:45:20.081Z,49.10
2023-02-06T03:47:50.352Z,49.10
2023-02-06T03:50:19.827Z,49.00
2023-02-06T03:52:52.709Z,49.00
2023-02-06T03:55:24.775Z,49.00
2023-02-06T03:57:57.792Z,49.00
2023-02-06T04:00:27.692Z,49.00
2023-02-06T04:02:58.826Z,49.00
2023-02-06T04:05:28.799Z,49.00
2023-02-06T04:07:59.619Z,48.90
2023-02-06T04:10:28.888Z,49.50
2023-02-06T04:12:58.261Z,48.90
2023-02-06T04:15:27.707Z,48.90
2023-02-06T04:18:01.062Z,48.90
2023-02-06T04:20:31.482Z,48.90
2023-02-06T04:23:02.067Z,48.90
2023-02-06T04:25:31.362Z,48.80
2023-02-06T04:28:00.647Z,48.80
2023-02-06T04:30:29.825Z,48.80
2023-02-06T04:32:59.053Z,48.80
2023-02-06T04:35:28.385Z,48.80
2023-02-06T04:37:57.860Z,48.80
2023-02-06T04:40:28.536Z,48.90
2023-02-06T04:42:57.700Z,48.80
2023-02-06T04:45:27.022Z,48.80
2023-02-06T04:47:57.511Z,48.80
2023-02-06T04:50:31.507Z,48.80
2023-02-06T04:53:00.704Z,48.80
2023-02-06T04:55:31.337Z,48.80
2023-02-06T04:58:00.515Z,48.80
2023-02-06T05:00:29.790Z,48.70
2023-02-06T05:02:59.029Z,48.60
2023-02-06T05:05:28.274Z,48.60
2023-02-06T05:07:57.564Z,48.50
2023-02-06T05:10:27.163Z,48.40
2023-02-06T05:12:57.841Z,48.50
2023-02-06T05:15:27.510Z,48.40
2023-02-06T05:17:56.838Z,48.50
2023-02-06T05:20:26.081Z,48.50
2023-02-06T05:55:24.773Z,59.40
2023-02-06T06:27:49.414Z,64.80
2023-02-06T06:30:19.226Z,49.50
2023-02-06T06:32:48.560Z,49.70
2023-02-06T08:00:14.318Z,61.60
2023-02-06T08:02:44.969Z,50.30
2023-02-06T08:20:14.466Z,82.90
2023-02-06T08:30:14.903Z,82.00
2023-02-06T08:45:13.246Z,54.20
2023-02-06T08:52:42.620Z,80.10
2023-02-06T09:00:12.436Z,70.40
2023-02-06T09:07:41.964Z,69.50
2023-02-06T09:10:26.689Z,69.90
2023-02-06T09:22:57.512Z,71.00
2023-02-06T09:40:29.789Z,70.50
2023-02-06T09:42:59.588Z,68.20
2023-02-06T09:45:30.770Z,70.90
2023-02-06T09:48:06.151Z,70.90
2023-02-06T09:50:46.366Z,70.50
2023-02-06T09:53:24.862Z,70.50
2023-02-06T09:56:00.953Z,71.50
2023-02-06T09:58:42.925Z,71.50
2023-02-06T10:01:21.168Z,71.30
2023-02-06T10:04:15.994Z,71.90
2023-02-06T10:06:54.194Z,71.70
2023-02-06T10:09:28.753Z,71.60
2023-02-06T10:12:03.881Z,71.90
2023-02-06T10:14:40.839Z,72.00
2023-02-06T10:17:19.285Z,71.90
2023-02-06T10:19:54.314Z,71.90
2023-02-06T10:22:29.390Z,72.60
2023-02-06T10:25:14.821Z,72.10
2023-02-06T10:27:49.164Z,72.40
2023-02-06T10:30:21.113Z,71.40
2023-02-06T10:32:57.034Z,72.10
2023-02-06T10:35:44.858Z,66.70
2023-02-06T10:39:00.865Z,65.70
2023-02-06T10:41:40.490Z,70.20
2023-02-06T10:44:20.095Z,62.50
2023-02-06T10:46:52.331Z,71.80
2023-02-06T10:49:28.034Z,71.60
2023-02-06T10:52:00.973Z,71.10
2023-02-06T10:54:37.552Z,72.30
2023-02-06T10:57:14.214Z,74.00
2023-02-06T10:59:49.001Z,74.60
2023-02-06T11:02:24.551Z,73.30
2023-02-06T11:05:01.512Z,66.60
2023-02-06T11:07:34.619Z,49.50
2023-02-06T11:10:04.075Z,49.50
2023-02-06T11:12:37.643Z,49.50
2023-02-06T11:15:19.895Z,49.40
2023-02-06T11:17:49.521Z,49.30
2023-02-06T11:20:23.192Z,49.30
2023-02-06T11:22:53.786Z,61.50
2023-02-06T11:25:28.469Z,65.80
2023-02-06T11:27:58.910Z,66.30
2023-02-06T11:30:35.092Z,65.10
2023-02-06T11:33:07.411Z,66.20
2023-02-06T11:35:40.462Z,65.70
2023-02-06T11:38:16.680Z,65.80
2023-02-06T11:40:55.221Z,66.10
2023-02-06T11:43:26.508Z,66.70
2023-02-06T11:46:19.227Z,66.40
2023-02-06T11:48:50.150Z,65.10
2023-02-06T11:53:59.396Z,60.10
2023-02-06T11:56:30.042Z,66.50
2023-02-06T11:59:08.015Z,60.30
2023-02-06T12:01:44.827Z,60.20
2023-02-06T12:04:24.123Z,60.10
2023-02-06T12:07:02.619Z,60.90
2023-02-06T12:12:06.095Z,67.30
2023-02-06T12:14:40.407Z,67.30
2023-02-06T12:17:23.617Z,65.20
2023-02-06T12:20:00.306Z,64.30
2023-02-06T12:25:00.332Z,66.90
2023-02-06T12:27:34.520Z,66.90
2023-02-06T12:30:09.287Z,68.20
2023-02-06T12:32:44.874Z,68.70
2023-02-06T12:35:21.753Z,68.70
2023-02-06T12:37:55.516Z,68.70
2023-02-06T12:40:36.557Z,69.00
2023-02-06T12:43:10.314Z,68.90
2023-02-06T12:45:49.084Z,67.90
2023-02-06T12:48:25.001Z,68.00
2023-02-06T12:51:07.872Z,68.00
2023-02-06T12:53:40.228Z,68.00
2023-02-06T12:56:18.522Z,69.20
2023-02-06T12:58:55.124Z,68.50
2023-02-06T13:01:52.245Z,61.70
2023-02-06T13:04:26.926Z,69.00
2023-02-06T13:06:58.958Z,69.50
2023-02-06T13:09:32.591Z,69.50
2023-02-06T13:12:23.039Z,62.50
2023-02-06T13:14:55.188Z,69.80
2023-02-06T13:17:26.738Z,73.10
2023-02-06T13:20:05.976Z,86.60
2023-02-06T13:22:44.019Z,55.20
2023-02-06T13:25:55.498Z,73.20
2023-02-06T13:28:59.564Z,74.90
2023-02-06T13:31:31.535Z,81.80
2023-02-06T13:34:04.050Z,83.10
2023-02-06T13:36:50.785Z,68.20
2023-02-06T13:39:29.766Z,49.20
2023-02-06T13:42:16.555Z,49.30
2023-02-06T13:44:46.907Z,49.20
2023-02-06T13:47:35.027Z,49.10
2023-02-06T13:50:39.914Z,49.10
2023-02-06T13:53:33.770Z,49.00
2023-02-06T13:56:16.821Z,49.00
2023-02-06T13:58:50.183Z,49.00
2023-02-06T14:01:23.362Z,48.80
2023-02-06T14:03:55.224Z,48.90
2023-02-06T14:06:47.964Z,48.90
2023-02-06T14:09:36.663Z,48.90
2023-02-06T14:12:33.015Z,48.80
2023-02-06T14:15:13.682Z,48.80
2023-02-06T14:18:01.923Z,48.80
2023-02-06T14:20:42.928Z,48.70
2023-02-06T14:23:20.794Z,48.80
2023-02-06T14:26:03.480Z,48.70
2023-02-06T14:28:43.823Z,48.70
2023-02-06T14:31:24.898Z,48.70
2023-02-06T14:34:10.845Z,48.70
2023-02-06T14:37:07.039Z,48.70
2023-02-06T14:39:43.919Z,48.70
2023-02-06T14:42:25.677Z,48.70
2023-02-06T14:44:59.239Z,48.70
2023-02-06T14:47:33.171Z,48.70
2023-02-06T14:50:03.213Z,48.70
2023-02-06T14:52:34.711Z,48.70
2023-02-06T14:55:30.947Z,48.70
2023-02-06T14:58:02.516Z,48.60
2023-02-06T15:00:32.628Z,49.20
2023-02-06T15:03:08.224Z,48.60
2023-02-06T15:05:38.913Z,48.60
2023-02-06T15:08:09.613Z,48.70
2023-02-06T15:10:39.975Z,49.20
2023-02-06T15:13:23.317Z,48.60
2023-02-06T15:15:57.735Z,48.60
2023-02-06T15:18:27.736Z,48.60
2023-02-06T15:20:59.965Z,48.60
2023-02-06T15:23:47.831Z,48.60
2023-02-06T15:26:26.362Z,48.60
2023-02-06T15:29:01.291Z,48.60
2023-02-06T15:31:32.013Z,48.60
2023-02-06T15:34:02.758Z,48.70
2023-02-06T15:36:34.043Z,48.60
2023-02-06T15:39:06.239Z,48.60
2023-02-06T15:41:36.604Z,48.60
2023-02-06T15:44:14.397Z,48.60
2023-02-06T15:46:43.870Z,48.60
2023-02-06T15:49:20.140Z,48.60
2023-02-06T15:51:55.135Z,48.60
2023-02-06T15:54:27.195Z,48.60
2023-02-06T15:57:03.238Z,48.60
2023-02-06T15:59:36.411Z,48.70
2023-02-06T16:02:06.169Z,66.30
2023-02-06T16:04:38.515Z,48.70
2023-02-06T16:07:13.952Z,48.70
2023-02-06T16:09:51.005Z,48.60
2023-02-06T16:12:21.614Z,58.80
2023-02-06T16:14:57.668Z,48.70
2023-02-06T16:17:32.421Z,48.70
2023-02-06T16:20:02.896Z,53.40
2023-02-06T16:22:34.984Z,64.00
2023-02-06T16:25:21.202Z,57.40
2023-02-06T16:27:52.080Z,66.50
2023-02-06T16:30:28.415Z,65.00
2023-02-06T16:32:59.752Z,65.30
2023-02-06T16:53:04.812Z,81.60
2023-02-06T16:58:04.178Z,83.20
2023-02-06T17:00:35.217Z,82.70
2023-02-06T17:13:14.463Z,73.20
2023-02-06T17:15:47.352Z,84.90
2023-02-06T17:20:50.113Z,66.70
2023-02-06T17:28:21.369Z,70.20
2023-02-06T17:33:21.754Z,53.30
2023-02-06T17:35:51.208Z,45.60
2023-02-06T17:38:20.619Z,45.60
2023-02-06T17:40:49.872Z,45.50
2023-02-06T17:43:19.199Z,45.40
2023-02-06T17:45:48.932Z,45.30
2023-02-06T17:48:19.593Z,45.20
2023-02-06T17:53:18.399Z,43.90
2023-02-06T17:55:47.792Z,44.20
2023-02-06T17:58:18.864Z,44.80
2023-02-06T18:00:49.884Z,45.10
2023-02-06T18:03:20.600Z,45.00
2023-02-06T18:05:58.546Z,45.30
2023-02-06T18:08:29.115Z,45.30
2023-02-06T18:10:58.886Z,45.30
2023-02-06T18:13:28.750Z,45.60
2023-02-06T18:15:58.985Z,45.90
2023-02-06T18:18:30.941Z,45.80
2023-02-06T18:21:00.533Z,45.40
2023-02-06T18:23:29.872Z,45.30
2023-02-06T18:26:02.815Z,45.60
2023-02-06T18:28:32.857Z,45.40
2023-02-06T18:31:02.702Z,45.10
2023-02-06T18:33:35.484Z,45.20
2023-02-06T18:36:07.108Z,45.20
2023-02-06T18:38:36.624Z,45.50
2023-02-06T18:41:07.298Z,45.20
2023-02-06T18:43:35.508Z,44.90
2023-02-06T18:46:08.449Z,44.70
2023-02-06T18:48:39.532Z,44.70
2023-02-06T18:51:09.334Z,45.30
2023-02-06T18:53:38.629Z,45.00
2023-02-06T18:56:08.424Z,44.90
2023-02-06T18:58:38.107Z,44.80
2023-02-06T19:01:14.201Z,45.10
2023-02-06T19:03:45.604Z,45.20
2023-02-06T19:06:17.611Z,45.10
2023-02-06T19:08:47.343Z,45.10
2023-02-06T19:11:17.190Z,45.00
2023-02-06T19:13:47.137Z,44.80
2023-02-06T19:16:18.909Z,44.70
2023-02-06T19:18:50.958Z,44.80
2023-02-06T19:21:22.425Z,44.90
2023-02-06T19:23:56.380Z,44.80
2023-02-06T19:26:27.078Z,44.80
2023-02-06T19:28:57.707Z,44.80
2023-02-06T19:31:28.890Z,44.90
2023-02-06T19:34:03.096Z,45.10
2023-02-06T19:36:33.121Z,44.80
2023-02-06T19:39:04.225Z,44.80
2023-02-06T19:41:35.832Z,44.80
2023-02-06T19:44:07.029Z,45.00
2023-02-06T19:46:36.825Z,45.10
2023-02-06T19:49:08.951Z,44.70
2023-02-06T19:51:41.142Z,44.80
2023-02-06T19:54:10.480Z,44.90
2023-02-06T19:56:43.309Z,45.10
2023-02-06T19:59:18.367Z,45.10
2023-02-06T20:01:49.726Z,45.20
2023-02-06T20:04:21.550Z,45.20
2023-02-06T20:06:51.484Z,45.20
2023-02-06T20:09:22.107Z,45.30
2023-02-06T20:11:51.884Z,45.30
2023-02-06T20:14:21.634Z,45.40
2023-02-06T20:16:51.441Z,45.50
2023-02-06T20:19:25.043Z,45.50
2023-02-06T20:21:56.559Z,45.40
2023-02-06T20:24:28.199Z,45.30
2023-02-06T20:26:58.988Z,45.40
2023-02-06T20:29:31.347Z,45.40
2023-02-06T20:32:01.568Z,45.40
2023-02-06T20:34:32.395Z,45.50
2023-02-06T20:37:01.584Z,45.60
2023-02-06T20:39:31.289Z,45.60
2023-02-06T20:42:00.956Z,45.50
2023-02-06T20:44:30.928Z,45.50
2023-02-06T20:47:01.204Z,45.60
2023-02-06T20:49:32.286Z,45.80
2023-02-06T20:52:01.586Z,45.70
2023-02-06T20:54:31.235Z,45.80
2023-02-06T20:57:00.630Z,45.90
2023-02-06T20:59:29.808Z,45.80
2023-02-06T21:01:59.068Z,45.80
2023-02-06T21:04:28.223Z,45.80
2023-02-06T21:06:58.886Z,45.80
2023-02-06T21:09:28.121Z,45.90
2023-02-06T21:11:57.487Z,45.80
2023-02-06T21:14:28.229Z,45.70
2023-02-06T21:16:58.012Z,45.70
2023-02-06T21:19:29.304Z,45.70
2023-02-06T21:22:00.911Z,46.30
2023-02-06T21:24:30.416Z,45.70
2023-02-06T21:26:59.606Z,45.70
2023-02-06T21:29:28.786Z,45.70
2023-02-06T21:32:12.193Z,45.60
2023-02-06T21:34:42.324Z,45.60
2023-02-06T21:37:12.995Z,45.50
2023-02-06T21:39:42.383Z,45.60
2023-02-06T21:42:12.067Z,45.60
2023-02-06T21:44:41.325Z,45.50
2023-02-06T21:47:11.094Z,46.10
2023-02-06T21:49:40.242Z,45.50
2023-02-06T21:52:09.507Z,45.40
2023-02-06T21:54:40.313Z,45.40
2023-02-06T21:57:09.533Z,45.30
2023-02-06T21:59:38.852Z,45.40
2023-02-06T22:02:08.175Z,45.40
2023-02-06T22:04:37.363Z,45.40
2023-02-06T22:07:08.553Z,45.40
2023-02-06T22:09:37.764Z,45.40
2023-02-06T22:12:08.783Z,45.40
2023-02-06T22:14:38.126Z,45.40
2023-02-06T22:17:07.297Z,45.40
2023-02-06T22:19:37.919Z,45.40
2023-02-06T22:22:07.699Z,45.40
2023-02-06T22:24:37.042Z,45.40
2023-02-06T22:27:07.701Z,45.40
2023-02-06T22:29:36.924Z,45.40
2023-02-06T22:32:06.326Z,45.40
2023-02-06T22:34:35.654Z,45.40
2023-02-06T22:37:04.820Z,45.40
2023-02-06T22:39:34.020Z,45.40
2023-02-06T22:42:03.256Z,45.40
2023-02-06T22:44:33.852Z,53.20
2023-02-06T22:47:03.062Z,45.40
2023-02-06T22:49:32.238Z,45.40
2023-02-06T22:52:01.472Z,45.30
2023-02-06T22:54:30.617Z,45.30
2023-02-06T22:56:59.847Z,45.30
2023-02-06T22:59:29.235Z,45.20
2023-02-06T23:02:00.432Z,45.30
2023-02-06T23:04:34.708Z,45.20
2023-02-06T23:07:04.123Z,45.20
2023-02-06T23:09:35.572Z,45.20
2023-02-06T23:12:05.744Z,45.20
2023-02-06T23:14:35.134Z,45.10
2023-02-06T23:17:05.784Z,45.10
2023-02-06T23:19:35.019Z,45.20
2023-02-06T23:22:04.267Z,45.20
2023-02-06T23:24:33.546Z,45.20
2023-02-06T23:27:02.753Z,45.20
2023-02-06T23:29:31.981Z,45.20
2023-02-06T23:32:01.175Z,45.10
2023-02-06T23:34:31.735Z,45.10
2023-02-06T23:37:01.182Z,45.10
2023-02-06T23:39:30.478Z,45.10
2023-02-06T23:41:59.693Z,45.10
2023-02-06T23:44:28.931Z,45.10
2023-02-06T23:46:58.140Z,45.10
2023-02-06T23:49:27.344Z,45.10
2023-02-06T23:51:57.933Z,45.10
2023-02-06T23:54:27.189Z,45.10
2023-02-06T23:56:56.404Z,45.10
2023-02-06T23:59:25.562Z,45.10
